sensor_id;sensor_type;location;lat;lon;timestamp;pressure;altitude;pressure_sealevel;temperature;humidity
10466;BME280;5280;42.600;23.556;2023-05-09T00:02:19;93678.00;;;12.85;100.00
10466;BME280;5280;42.600;23.556;2023-05-09T00:04:47;93670.50;;;12.90;100.00
10466;BME280;5280;42.600;23.556;2023-05-09T00:07:14;93673.38;;;12.99;100.00
10466;BME280;5280;42.600;23.556;2023-05-09T00:09:41;93660.59;;;12.92;100.00
10466;BME280;5280;42.600;23.556;2023-05-09T00:12:08;93597.81;;;12.61;100.00
10466;BME280;5280;42.600;23.556;2023-05-09T00:14:36;93605.94;;;12.60;100.00
10466;BME280;5280;42.600;23.556;2023-05-09T00:17:03;93612.00;;;12.71;100.00
10466;BME280;5280;42.600;23.556;2023-05-09T00:19:30;93675.97;;;13.10;100.00
10466;BME280;5280;42.600;23.556;2023-05-09T00:21:59;93614.41;;;12.74;100.00
10466;BME280;5280;42.600;23.556;2023-05-09T00:24:25;93669.31;;;13.15;100.00
10466;BME280;5280;42.600;23.556;2023-05-09T00:26:52;93588.41;;;12.68;100.00
10466;BME280;5280;42.600;23.556;2023-05-09T00:29:19;93631.41;;;12.92;100.00
10466;BME280;5280;42.600;23.556;2023-05-09T00:31:46;93623.47;;;12.92;100.00
10466;BME280;5280;42.600;23.556;2023-05-09T00:34:12;93610.31;;;12.91;100.00
10466;BME280;5280;42.600;23.556;2023-05-09T00:36:39;93672.16;;;13.23;100.00
10466;BME280;5280;42.600;23.556;2023-05-09T00:39:07;93583.69;;;12.72;100.00
10466;BME280;5280;42.600;23.556;2023-05-09T00:41:35;93642.28;;;13.10;100.00
10466;BME280;5280;42.600;23.556;2023-05-09T00:44:02;93623.19;;;12.95;100.00
10466;BME280;5280;42.600;23.556;2023-05-09T00:46:29;93645.41;;;13.15;100.00
10466;BME280;5280;42.600;23.556;2023-05-09T00:48:55;93669.81;;;13.30;100.00
10466;BME280;5280;42.600;23.556;2023-05-09T00:51:22;93663.53;;;13.31;100.00
10466;BME280;5280;42.600;23.556;2023-05-09T00:53:50;93614.03;;;13.00;100.00
10466;BME280;5280;42.600;23.556;2023-05-09T00:56:18;93633.00;;;13.16;100.00
10466;BME280;5280;42.600;23.556;2023-05-09T00:58:46;93659.34;;;13.28;100.00
10466;BME280;5280;42.600;23.556;2023-05-09T01:01:13;93664.72;;;13.38;100.00
10466;BME280;5280;42.600;23.556;2023-05-09T01:03:41;93660.94;;;13.41;100.00
10466;BME280;5280;42.600;23.556;2023-05-09T01:06:12;93657.97;;;13.34;100.00
10466;BME280;5280;42.600;23.556;2023-05-09T01:08:45;93562.91;;;12.77;100.00
10466;BME280;5280;42.600;23.556;2023-05-09T01:11:19;93575.00;;;12.90;100.00
10466;BME280;5280;42.600;23.556;2023-05-09T01:13:54;93657.88;;;13.45;100.00
10466;BME280;5280;42.600;23.556;2023-05-09T01:16:30;93620.56;;;13.16;100.00
10466;BME280;5280;42.600;23.556;2023-05-09T01:19:04;93665.59;;;13.48;100.00
10466;BME280;5280;42.600;23.556;2023-05-09T01:21:31;93647.75;;;13.29;100.00
10466;BME280;5280;42.600;23.556;2023-05-09T01:24:24;93670.91;;;13.48;100.00
10466;BME280;5280;42.600;23.556;2023-05-09T01:27:18;93664.19;;;13.44;100.00
10466;BME280;5280;42.600;23.556;2023-05-09T01:29:50;93676.00;;;13.40;100.00
10466;BME280;5280;42.600;23.556;2023-05-09T01:32:23;93668.06;;;13.40;100.00
10466;BME280;5280;42.600;23.556;2023-05-09T01:34:51;93679.41;;;13.42;100.00
10466;BME280;5280;42.600;23.556;2023-05-09T01:37:27;93677.19;;;13.47;100.00
10466;BME280;5280;42.600;23.556;2023-05-09T01:39:57;93670.19;;;13.46;100.00
10466;BME280;5280;42.600;23.556;2023-05-09T01:42:28;93667.09;;;13.41;100.00
10466;BME280;5280;42.600;23.556;2023-05-09T01:44:58;93675.91;;;13.42;100.00
10466;BME280;5280;42.600;23.556;2023-05-09T01:47:26;93679.28;;;13.44;100.00
10466;BME280;5280;42.600;23.556;2023-05-09T01:49:54;93685.16;;;13.47;100.00
10466;BME280;5280;42.600;23.556;2023-05-09T01:52:22;93684.19;;;13.48;100.00
10466;BME280;5280;42.600;23.556;2023-05-09T01:54:53;93684.88;;;13.50;100.00
10466;BME280;5280;42.600;23.556;2023-05-09T01:57:21;93669.94;;;13.49;100.00
10466;BME280;5280;42.600;23.556;2023-05-09T01:59:50;93665.41;;;13.40;100.00
10466;BME280;5280;42.600;23.556;2023-05-09T02:02:20;93689.50;;;13.48;100.00
10466;BME280;5280;42.600;23.556;2023-05-09T02:04:47;93658.09;;;13.32;100.00
10466;BME280;5280;42.600;23.556;2023-05-09T02:07:16;93628.44;;;13.07;100.00
10466;BME280;5280;42.600;23.556;2023-05-09T02:09:44;93651.56;;;13.16;100.00
10466;BME280;5280;42.600;23.556;2023-05-09T02:12:12;93686.06;;;13.36;100.00
10466;BME280;5280;42.600;23.556;2023-05-09T02:14:39;93639.00;;;12.97;100.00
10466;BME280;5280;42.600;23.556;2023-05-09T02:17:07;93651.97;;;13.11;100.00
10466;BME280;5280;42.600;23.556;2023-05-09T02:19:37;93679.00;;;13.26;100.00
10466;BME280;5280;42.600;23.556;2023-05-09T02:22:03;93685.75;;;13.30;100.00
10466;BME280;5280;42.600;23.556;2023-05-09T02:24:32;93682.97;;;13.31;100.00
10466;BME280;5280;42.600;23.556;2023-05-09T02:27:00;93629.75;;;12.91;100.00
10466;BME280;5280;42.600;23.556;2023-05-09T02:29:30;93628.88;;;12.91;100.00
10466;BME280;5280;42.600;23.556;2023-05-09T02:32:06;93667.50;;;13.16;100.00
10466;BME280;5280;42.600;23.556;2023-05-09T02:34:36;93671.38;;;13.12;100.00
10466;BME280;5280;42.600;23.556;2023-05-09T02:37:04;93678.72;;;13.19;100.00
10466;BME280;5280;42.600;23.556;2023-05-09T02:39:32;93594.94;;;12.64;100.00
10466;BME280;5280;42.600;23.556;2023-05-09T02:42:04;93670.88;;;13.18;100.00
10466;BME280;5280;42.600;23.556;2023-05-09T02:44:32;93681.47;;;13.18;100.00
10466;BME280;5280;42.600;23.556;2023-05-09T02:46:59;93680.38;;;13.20;100.00
10466;BME280;5280;42.600;23.556;2023-05-09T02:49:26;93666.41;;;13.18;100.00
10466;BME280;5280;42.600;23.556;2023-05-09T02:54:25;93641.97;;;13.04;100.00
10466;BME280;5280;42.600;23.556;2023-05-09T02:56:52;93666.66;;;13.15;100.00
10466;BME280;5280;42.600;23.556;2023-05-09T02:59:19;93668.94;;;13.20;100.00
10466;BME280;5280;42.600;23.556;2023-05-09T03:01:46;93679.28;;;13.23;100.00
10466;BME280;5280;42.600;23.556;2023-05-09T03:04:13;93673.53;;;13.18;100.00
10466;BME280;5280;42.600;23.556;2023-05-09T03:06:41;93657.63;;;13.07;100.00
10466;BME280;5280;42.600;23.556;2023-05-09T03:09:09;93651.41;;;12.76;100.00
10466;BME280;5280;42.600;23.556;2023-05-09T03:11:39;93604.69;;;12.43;100.00
10466;BME280;5280;42.600;23.556;2023-05-09T03:14:07;93657.34;;;12.68;100.00
10466;BME280;5280;42.600;23.556;2023-05-09T03:16:35;93641.50;;;12.46;100.00
10466;BME280;5280;42.600;23.556;2023-05-09T03:19:02;93601.50;;;12.17;100.00
10466;BME280;5280;42.600;23.556;2023-05-09T03:21:29;93687.44;;;12.78;100.00
10466;BME280;5280;42.600;23.556;2023-05-09T03:23:57;93661.25;;;12.53;100.00
10466;BME280;5280;42.600;23.556;2023-05-09T03:26:26;93684.09;;;12.65;100.00
10466;BME280;5280;42.600;23.556;2023-05-09T03:28:53;93644.47;;;12.32;100.00
10466;BME280;5280;42.600;23.556;2023-05-09T03:31:23;93661.47;;;12.29;100.00
10466;BME280;5280;42.600;23.556;2023-05-09T03:33:52;93705.09;;;12.68;100.00
10466;BME280;5280;42.600;23.556;2023-05-09T03:36:19;93705.97;;;12.58;100.00
10466;BME280;5280;42.600;23.556;2023-05-09T03:38:47;93700.00;;;12.65;100.00
10466;BME280;5280;42.600;23.556;2023-05-09T03:41:15;93639.44;;;12.18;100.00
10466;BME280;5280;42.600;23.556;2023-05-09T03:43:44;93715.72;;;12.57;100.00
10466;BME280;5280;42.600;23.556;2023-05-09T03:46:11;93693.38;;;12.39;100.00
10466;BME280;5280;42.600;23.556;2023-05-09T03:48:38;93684.72;;;12.26;100.00
10466;BME280;5280;42.600;23.556;2023-05-09T03:51:05;93657.66;;;12.11;100.00
10466;BME280;5280;42.600;23.556;2023-05-09T03:53:31;93724.44;;;12.48;100.00
10466;BME280;5280;42.600;23.556;2023-05-09T03:55:58;93675.59;;;12.19;100.00
10466;BME280;5280;42.600;23.556;2023-05-09T03:58:25;93708.25;;;12.51;100.00
10466;BME280;5280;42.600;23.556;2023-05-09T04:00:53;93714.63;;;12.60;100.00
10466;BME280;5280;42.600;23.556;2023-05-09T04:03:20;93688.75;;;12.52;100.00
10466;BME280;5280;42.600;23.556;2023-05-09T04:05:47;93704.63;;;12.63;100.00
10466;BME280;5280;42.600;23.556;2023-05-09T04:08:14;93719.03;;;12.70;100.00
10466;BME280;5280;42.600;23.556;2023-05-09T04:10:41;93717.31;;;12.80;100.00
10466;BME280;5280;42.600;23.556;2023-05-09T04:13:08;93701.66;;;12.77;100.00
10466;BME280;5280;42.600;23.556;2023-05-09T04:15:35;93717.78;;;12.85;100.00
10466;BME280;5280;42.600;23.556;2023-05-09T04:18:04;93690.59;;;12.72;100.00
10466;BME280;5280;42.600;23.556;2023-05-09T04:20:31;93708.75;;;12.88;100.00
10466;BME280;5280;42.600;23.556;2023-05-09T04:22:57;93626.16;;;12.40;100.00
10466;BME280;5280;42.600;23.556;2023-05-09T04:25:25;93712.44;;;12.97;100.00
10466;BME280;5280;42.600;23.556;2023-05-09T04:27:52;93640.53;;;12.58;100.00
10466;BME280;5280;42.600;23.556;2023-05-09T04:30:21;93703.78;;;12.94;100.00
10466;BME280;5280;42.600;23.556;2023-05-09T04:32:48;93736.00;;;13.11;100.00
10466;BME280;5280;42.600;23.556;2023-05-09T04:35:16;93721.31;;;13.07;100.00
10466;BME280;5280;42.600;23.556;2023-05-09T04:37:43;93719.59;;;13.17;100.00
10466;BME280;5280;42.600;23.556;2023-05-09T04:40:10;93740.38;;;13.12;100.00
10466;BME280;5280;42.600;23.556;2023-05-09T04:42:37;93726.72;;;13.16;100.00
10466;BME280;5280;42.600;23.556;2023-05-09T04:45:05;93723.44;;;13.24;100.00
10466;BME280;5280;42.600;23.556;2023-05-09T04:47:32;93709.94;;;13.16;100.00
10466;BME280;5280;42.600;23.556;2023-05-09T04:49:59;93719.81;;;13.25;100.00
10466;BME280;5280;42.600;23.556;2023-05-09T04:52:27;93724.84;;;13.28;100.00
10466;BME280;5280;42.600;23.556;2023-05-09T04:54:54;93725.31;;;13.33;100.00
10466;BME280;5280;42.600;23.556;2023-05-09T04:57:21;93720.56;;;13.36;100.00
10466;BME280;5280;42.600;23.556;2023-05-09T04:59:48;93666.69;;;13.04;100.00
10466;BME280;5280;42.600;23.556;2023-05-09T05:02:17;93713.97;;;13.31;100.00
10466;BME280;5280;42.600;23.556;2023-05-09T05:04:45;93640.94;;;12.74;100.00
10466;BME280;5280;42.600;23.556;2023-05-09T05:07:12;93727.41;;;13.29;100.00
10466;BME280;5280;42.600;23.556;2023-05-09T05:09:41;93729.56;;;13.45;100.00
10466;BME280;5280;42.600;23.556;2023-05-09T05:12:07;93677.72;;;13.00;99.45
10466;BME280;5280;42.600;23.556;2023-05-09T05:14:34;93733.66;;;13.49;98.46
10466;BME280;5280;42.600;23.556;2023-05-09T05:17:01;93726.91;;;13.45;99.00
10466;BME280;5280;42.600;23.556;2023-05-09T05:19:28;93732.50;;;13.42;98.32
10466;BME280;5280;42.600;23.556;2023-05-09T05:21:55;93673.63;;;13.16;97.62
10466;BME280;5280;42.600;23.556;2023-05-09T05:24:25;93676.09;;;13.08;98.63
10466;BME280;5280;42.600;23.556;2023-05-09T05:26:53;93696.59;;;13.06;100.00
10466;BME280;5280;42.600;23.556;2023-05-09T05:29:20;93638.41;;;12.73;100.00
10466;BME280;5280;42.600;23.556;2023-05-09T05:31:47;93703.47;;;13.09;100.00
10466;BME280;5280;42.600;23.556;2023-05-09T05:34:14;93678.38;;;12.81;100.00
10466;BME280;5280;42.600;23.556;2023-05-09T05:36:41;93744.34;;;13.17;100.00
10466;BME280;5280;42.600;23.556;2023-05-09T05:39:08;93650.84;;;12.61;100.00
10466;BME280;5280;42.600;23.556;2023-05-09T05:41:35;93745.56;;;13.13;100.00
10466;BME280;5280;42.600;23.556;2023-05-09T05:44:03;93678.28;;;12.71;100.00
10466;BME280;5280;42.600;23.556;2023-05-09T05:46:30;93696.56;;;12.85;100.00
10466;BME280;5280;42.600;23.556;2023-05-09T05:48:57;93740.13;;;13.15;100.00
10466;BME280;5280;42.600;23.556;2023-05-09T05:51:24;93750.38;;;13.19;100.00
10466;BME280;5280;42.600;23.556;2023-05-09T05:53:51;93740.63;;;13.09;100.00
10466;BME280;5280;42.600;23.556;2023-05-09T05:56:18;93718.63;;;12.86;100.00
10466;BME280;5280;42.600;23.556;2023-05-09T05:58:44;93738.13;;;12.96;100.00
10466;BME280;5280;42.600;23.556;2023-05-09T06:01:13;93705.25;;;12.87;100.00
10466;BME280;5280;42.600;23.556;2023-05-09T06:03:40;93747.84;;;13.07;100.00
10466;BME280;5280;42.600;23.556;2023-05-09T06:06:07;93709.13;;;12.83;100.00
10466;BME280;5280;42.600;23.556;2023-05-09T06:08:41;93686.63;;;12.67;100.00
10466;BME280;5280;42.600;23.556;2023-05-09T06:11:10;93687.75;;;12.64;100.00
10466;BME280;5280;42.600;23.556;2023-05-09T06:16:18;93668.00;;;12.57;100.00
10466;BME280;5280;42.600;23.556;2023-05-09T06:18:46;93683.75;;;12.70;100.00
10466;BME280;5280;42.600;23.556;2023-05-09T06:31:38;93750.63;;;13.05;100.00
10466;BME280;5280;42.600;23.556;2023-05-09T06:36:36;93753.16;;;13.07;100.00
10466;BME280;5280;42.600;23.556;2023-05-09T06:41:56;93760.16;;;13.08;100.00
10466;BME280;5280;42.600;23.556;2023-05-09T06:55:06;93713.53;;;12.94;99.72
10466;BME280;5280;42.600;23.556;2023-05-09T06:57:33;93748.28;;;13.23;99.62
10466;BME280;5280;42.600;23.556;2023-05-09T07:00:01;93752.09;;;13.30;99.62
10466;BME280;5280;42.600;23.556;2023-05-09T07:02:29;93742.97;;;13.23;99.74
10466;BME280;5280;42.600;23.556;2023-05-09T07:04:56;93746.78;;;13.30;99.23
10466;BME280;5280;42.600;23.556;2023-05-09T07:07:22;93727.63;;;13.26;99.57
10466;BME280;5280;42.600;23.556;2023-05-09T07:09:49;93742.84;;;13.45;98.95
10466;BME280;5280;42.600;23.556;2023-05-09T07:12:17;93746.28;;;13.57;99.54
10466;BME280;5280;42.600;23.556;2023-05-09T07:14:44;93746.41;;;13.55;99.04
10466;BME280;5280;42.600;23.556;2023-05-09T07:17:11;93743.69;;;13.66;98.35
10466;BME280;5280;42.600;23.556;2023-05-09T07:19:38;93746.47;;;13.65;98.38
10466;BME280;5280;42.600;23.556;2023-05-09T07:22:05;93747.13;;;13.78;97.60
10466;BME280;5280;42.600;23.556;2023-05-09T07:24:34;93727.34;;;13.71;97.37
10466;BME280;5280;42.600;23.556;2023-05-09T07:27:02;93750.00;;;13.75;95.47
10466;BME280;5280;42.600;23.556;2023-05-09T07:29:30;93746.41;;;13.76;96.17
10466;BME280;5280;42.600;23.556;2023-05-09T07:32:00;93743.66;;;13.87;95.50
10466;BME280;5280;42.600;23.556;2023-05-09T07:34:27;93748.44;;;13.93;96.16
10466;BME280;5280;42.600;23.556;2023-05-09T07:36:54;93740.59;;;13.92;94.91
10466;BME280;5280;42.600;23.556;2023-05-09T07:39:21;93732.19;;;13.87;96.23
10466;BME280;5280;42.600;23.556;2023-05-09T07:41:47;93755.19;;;13.97;96.28
10466;BME280;5280;42.600;23.556;2023-05-09T07:44:14;93756.28;;;13.95;95.56
10466;BME280;5280;42.600;23.556;2023-05-09T07:46:43;93727.94;;;13.74;94.87
10466;BME280;5280;42.600;23.556;2023-05-09T07:49:16;93759.22;;;13.92;95.75
10466;BME280;5280;42.600;23.556;2023-05-09T07:51:43;93750.34;;;13.82;95.91
10466;BME280;5280;42.600;23.556;2023-05-09T07:54:10;93731.34;;;13.86;95.03
10466;BME280;5280;42.600;23.556;2023-05-09T07:56:37;93763.03;;;13.99;94.53
10466;BME280;5280;42.600;23.556;2023-05-09T07:59:03;93755.22;;;14.07;96.20
10466;BME280;5280;42.600;23.556;2023-05-09T08:01:30;93758.69;;;13.98;93.74
10466;BME280;5280;42.600;23.556;2023-05-09T08:03:59;93753.03;;;13.91;94.43
10466;BME280;5280;42.600;23.556;2023-05-09T08:06:26;93744.19;;;13.81;92.96
10466;BME280;5280;42.600;23.556;2023-05-09T08:08:53;93748.41;;;13.84;92.34
10466;BME280;5280;42.600;23.556;2023-05-09T08:11:20;93760.38;;;13.99;92.71
10466;BME280;5280;42.600;23.556;2023-05-09T08:13:47;93746.00;;;13.80;92.75
10466;BME280;5280;42.600;23.556;2023-05-09T08:16:14;93761.91;;;14.01;92.50
10466;BME280;5280;42.600;23.556;2023-05-09T08:18:42;93708.88;;;13.60;93.54
10466;BME280;5280;42.600;23.556;2023-05-09T08:21:10;93758.81;;;13.96;92.92
10466;BME280;5280;42.600;23.556;2023-05-09T08:23:37;93740.03;;;13.88;92.96
10466;BME280;5280;42.600;23.556;2023-05-09T08:26:05;93746.19;;;13.89;93.69
10466;BME280;5280;42.600;23.556;2023-05-09T08:28:32;93750.34;;;13.82;93.89
10466;BME280;5280;42.600;23.556;2023-05-09T08:30:59;93755.69;;;13.91;92.80
10466;BME280;5280;42.600;23.556;2023-05-09T08:33:26;93767.19;;;13.92;93.73
10466;BME280;5280;42.600;23.556;2023-05-09T08:35:56;93735.47;;;13.69;94.05
10466;BME280;5280;42.600;23.556;2023-05-09T08:38:24;93762.97;;;13.89;93.42
10466;BME280;5280;42.600;23.556;2023-05-09T08:40:52;93776.44;;;13.97;93.73
10466;BME280;5280;42.600;23.556;2023-05-09T08:43:20;93757.00;;;13.76;95.00
10466;BME280;5280;42.600;23.556;2023-05-09T08:45:51;93746.41;;;13.76;95.29
10466;BME280;5280;42.600;23.556;2023-05-09T08:48:20;93701.34;;;13.44;95.76
10466;BME280;5280;42.600;23.556;2023-05-09T08:50:48;93756.81;;;13.89;95.70
10466;BME280;5280;42.600;23.556;2023-05-09T08:53:19;93758.31;;;13.82;94.44
10466;BME280;5280;42.600;23.556;2023-05-09T08:55:49;93768.16;;;13.91;93.06
10466;BME280;5280;42.600;23.556;2023-05-09T08:58:18;93769.06;;;13.80;93.67
10466;BME280;5280;42.600;23.556;2023-05-09T09:00:47;93758.19;;;13.62;95.87
10466;BME280;5280;42.600;23.556;2023-05-09T09:03:16;93735.34;;;13.50;96.72
10466;BME280;5280;42.600;23.556;2023-05-09T09:05:44;93771.16;;;13.56;99.18
10466;BME280;5280;42.600;23.556;2023-05-09T09:08:13;93681.91;;;13.02;98.65
10466;BME280;5280;42.600;23.556;2023-05-09T09:10:41;93747.97;;;13.37;100.00
10466;BME280;5280;42.600;23.556;2023-05-09T09:13:14;93752.47;;;13.25;100.00
10466;BME280;5280;42.600;23.556;2023-05-09T09:15:42;93757.34;;;13.41;100.00
10466;BME280;5280;42.600;23.556;2023-05-09T09:18:15;93753.28;;;13.37;100.00
10466;BME280;5280;42.600;23.556;2023-05-09T09:20:47;93760.72;;;13.43;100.00
10466;BME280;5280;42.600;23.556;2023-05-09T09:23:17;93762.81;;;13.40;100.00
10466;BME280;5280;42.600;23.556;2023-05-09T09:25:45;93717.81;;;13.06;100.00
10466;BME280;5280;42.600;23.556;2023-05-09T09:28:13;93737.22;;;13.18;100.00
10466;BME280;5280;42.600;23.556;2023-05-09T09:30:43;93657.34;;;12.68;100.00
10466;BME280;5280;42.600;23.556;2023-05-09T09:33:18;93724.44;;;13.12;100.00
10466;BME280;5280;42.600;23.556;2023-05-09T09:35:48;93666.56;;;12.53;100.00
10466;BME280;5280;42.600;23.556;2023-05-09T09:38:16;93666.72;;;12.40;100.00
10466;BME280;5280;42.600;23.556;2023-05-09T09:40:52;93773.78;;;13.03;100.00
10466;BME280;5280;42.600;23.556;2023-05-09T09:43:26;93774.66;;;13.04;100.00
10466;BME280;5280;42.600;23.556;2023-05-09T09:45:53;93755.25;;;12.92;100.00
10466;BME280;5280;42.600;23.556;2023-05-09T09:48:24;93771.16;;;13.03;100.00
10466;BME280;5280;42.600;23.556;2023-05-09T09:50:53;93769.84;;;12.98;100.00
10466;BME280;5280;42.600;23.556;2023-05-09T09:53:21;93780.19;;;13.01;100.00
10466;BME280;5280;42.600;23.556;2023-05-09T09:55:50;93775.16;;;12.98;100.00
10466;BME280;5280;42.600;23.556;2023-05-09T09:58:19;93759.53;;;12.83;100.00
10466;BME280;5280;42.600;23.556;2023-05-09T10:01:03;93776.97;;;12.86;100.00
10466;BME280;5280;42.600;23.556;2023-05-09T10:03:34;93781.09;;;12.90;100.00
10466;BME280;5280;42.600;23.556;2023-05-09T10:06:01;93778.56;;;12.88;100.00
10466;BME280;5280;42.600;23.556;2023-05-09T10:08:28;93772.06;;;12.81;100.00
10466;BME280;5280;42.600;23.556;2023-05-09T10:10:57;93774.38;;;12.75;100.00
10466;BME280;5280;42.600;23.556;2023-05-09T10:13:25;93763.16;;;12.71;100.00
10466;BME280;5280;42.600;23.556;2023-05-09T10:15:58;93771.00;;;12.73;100.00
10466;BME280;5280;42.600;23.556;2023-05-09T10:18:28;93770.63;;;12.77;100.00
10466;BME280;5280;42.600;23.556;2023-05-09T10:20:56;93751.16;;;12.56;100.00
10466;BME280;5280;42.600;23.556;2023-05-09T10:23:26;93761.47;;;12.70;100.00
10466;BME280;5280;42.600;23.556;2023-05-09T10:26:02;93765.03;;;12.60;100.00
10466;BME280;5280;42.600;23.556;2023-05-09T10:28:32;93762.75;;;12.55;100.00
10466;BME280;5280;42.600;23.556;2023-05-09T10:31:06;93760.78;;;12.57;100.00
10466;BME280;5280;42.600;23.556;2023-05-09T10:33:41;93765.59;;;12.63;100.00
10466;BME280;5280;42.600;23.556;2023-05-09T10:36:09;93721.09;;;12.35;100.00
10466;BME280;5280;42.600;23.556;2023-05-09T10:38:37;93745.25;;;12.52;100.00
10466;BME280;5280;42.600;23.556;2023-05-09T10:41:05;93762.00;;;12.64;100.00
10466;BME280;5280;42.600;23.556;2023-05-09T10:43:36;93746.56;;;12.58;100.00
10466;BME280;5280;42.600;23.556;2023-05-09T10:46:04;93768.84;;;12.67;100.00
10466;BME280;5280;42.600;23.556;2023-05-09T10:48:32;93764.25;;;12.69;100.00
10466;BME280;5280;42.600;23.556;2023-05-09T10:50:59;93763.94;;;12.51;100.00
10466;BME280;5280;42.600;23.556;2023-05-09T10:53:39;93759.25;;;12.55;100.00
10466;BME280;5280;42.600;23.556;2023-05-09T10:56:07;93755.38;;;12.59;100.00
10466;BME280;5280;42.600;23.556;2023-05-09T10:58:35;93765.34;;;12.66;100.00
10466;BME280;5280;42.600;23.556;2023-05-09T11:01:05;93773.78;;;12.71;100.00
10466;BME280;5280;42.600;23.556;2023-05-09T11:03:53;93777.63;;;12.67;100.00
10466;BME280;5280;42.600;23.556;2023-05-09T11:06:40;93765.59;;;12.63;100.00
10466;BME280;5280;42.600;23.556;2023-05-09T11:09:30;93773.56;;;12.63;100.00
10466;BME280;5280;42.600;23.556;2023-05-09T11:12:10;93767.91;;;12.45;100.00
10466;BME280;5280;42.600;23.556;2023-05-09T11:14:42;93767.91;;;12.45;100.00
10466;BME280;5280;42.600;23.556;2023-05-09T11:22:23;93775.53;;;12.39;100.00
10466;BME280;5280;42.600;23.556;2023-05-09T11:24:59;93768.28;;;12.41;100.00
10466;BME280;5280;42.600;23.556;2023-05-09T11:27:37;93772.88;;;12.28;100.00
10466;BME280;5280;42.600;23.556;2023-05-09T11:30:09;93769.16;;;12.30;100.00
10466;BME280;5280;42.600;23.556;2023-05-09T11:32:42;93767.09;;;12.34;100.00
10466;BME280;5280;42.600;23.556;2023-05-09T11:35:11;93770.47;;;12.36;100.00
10466;BME280;5280;42.600;23.556;2023-05-09T11:37:50;93769.50;;;12.37;100.00
10466;BME280;5280;42.600;23.556;2023-05-09T11:40:21;93787.19;;;12.47;100.00
10466;BME280;5280;42.600;23.556;2023-05-09T11:42:51;93775.53;;;12.50;100.00
10466;BME280;5280;42.600;23.556;2023-05-09T11:45:21;93773.84;;;12.49;100.00
10466;BME280;5280;42.600;23.556;2023-05-09T11:47:49;93753.97;;;12.43;100.00
10466;BME280;5280;42.600;23.556;2023-05-09T11:50:18;93767.09;;;12.45;100.00
10466;BME280;5280;42.600;23.556;2023-05-09T11:52:48;93756.72;;;12.42;100.00
10466;BME280;5280;42.600;23.556;2023-05-09T11:55:17;93764.44;;;12.45;100.00
10466;BME280;5280;42.600;23.556;2023-05-09T11:57:52;93768.16;;;12.42;100.00
10466;BME280;5280;42.600;23.556;2023-05-09T12:00:22;93766.00;;;12.47;100.00
10466;BME280;5280;42.600;23.556;2023-05-09T12:02:50;93772.03;;;12.38;100.00
10466;BME280;5280;42.600;23.556;2023-05-09T12:05:22;93786.97;;;12.39;100.00
10466;BME280;5280;42.600;23.556;2023-05-09T12:07:52;93780.34;;;12.34;100.00
10466;BME280;5280;42.600;23.556;2023-05-09T12:10:21;93765.16;;;12.36;100.00
10466;BME280;5280;42.600;23.556;2023-05-09T12:12:52;93766.16;;;12.35;100.00
10466;BME280;5280;42.600;23.556;2023-05-09T12:15:23;93718.72;;;11.98;100.00
10466;BME280;5280;42.600;23.556;2023-05-09T12:18:00;93763.97;;;12.29;100.00
10466;BME280;5280;42.600;23.556;2023-05-09T12:20:39;93762.41;;;12.26;100.00
10466;BME280;5280;42.600;23.556;2023-05-09T12:23:08;93755.94;;;12.19;100.00
10466;BME280;5280;42.600;23.556;2023-05-09T12:25:35;93747.13;;;12.19;100.00
10466;BME280;5280;42.600;23.556;2023-05-09T12:28:02;93749.03;;;12.17;100.00
10466;BME280;5280;42.600;23.556;2023-05-09T12:30:29;93760.59;;;12.16;100.00
10466;BME280;5280;42.600;23.556;2023-05-09T12:32:57;93748.72;;;12.10;100.00
10466;BME280;5280;42.600;23.556;2023-05-09T12:35:24;93744.75;;;12.04;100.00
10466;BME280;5280;42.600;23.556;2023-05-09T12:37:55;93745.44;;;12.06;100.00
10466;BME280;5280;42.600;23.556;2023-05-09T12:40:24;93724.28;;;11.84;100.00
10466;BME280;5280;42.600;23.556;2023-05-09T12:42:51;93742.19;;;12.03;100.00
10466;BME280;5280;42.600;23.556;2023-05-09T12:45:24;93736.31;;;11.88;100.00
10466;BME280;5280;42.600;23.556;2023-05-09T12:47:51;93740.75;;;11.88;100.00
10466;BME280;5280;42.600;23.556;2023-05-09T12:50:18;93754.59;;;11.91;100.00
10466;BME280;5280;42.600;23.556;2023-05-09T12:52:50;93718.50;;;11.79;100.00
10466;BME280;5280;42.600;23.556;2023-05-09T12:55:17;93740.03;;;11.97;100.00
10466;BME280;5280;42.600;23.556;2023-05-09T12:57:58;93737.50;;;11.84;100.00
10466;BME280;5280;42.600;23.556;2023-05-09T13:00:25;93735.56;;;11.97;100.00
10466;BME280;5280;42.600;23.556;2023-05-09T13:02:52;93727.50;;;11.99;100.00
10466;BME280;5280;42.600;23.556;2023-05-09T13:05:20;93729.53;;;12.06;100.00
10466;BME280;5280;42.600;23.556;2023-05-09T13:07:49;93734.88;;;11.95;100.00
10466;BME280;5280;42.600;23.556;2023-05-09T13:10:18;93722.69;;;11.93;100.00
10466;BME280;5280;42.600;23.556;2023-05-09T13:12:49;93688.41;;;11.80;100.00
10466;BME280;5280;42.600;23.556;2023-05-09T13:15:21;93721.97;;;12.02;100.00
10466;BME280;5280;42.600;23.556;2023-05-09T13:17:49;93728.00;;;12.04;100.00
10466;BME280;5280;42.600;23.556;2023-05-09T13:20:17;93730.38;;;11.96;100.00
10466;BME280;5280;42.600;23.556;2023-05-09T13:22:44;93727.16;;;11.92;100.00
10466;BME280;5280;42.600;23.556;2023-05-09T13:25:12;93706.22;;;11.89;100.00
10466;BME280;5280;42.600;23.556;2023-05-09T13:27:40;93702.34;;;11.82;100.00
10466;BME280;5280;42.600;23.556;2023-05-09T13:30:07;93724.13;;;11.97;100.00
10466;BME280;5280;42.600;23.556;2023-05-09T13:32:36;93728.47;;;12.09;100.00
10466;BME280;5280;42.600;23.556;2023-05-09T13:35:03;93706.56;;;11.96;100.00
10466;BME280;5280;42.600;23.556;2023-05-09T13:37:31;93712.69;;;12.07;100.00
10466;BME280;5280;42.600;23.556;2023-05-09T13:39:58;93723.03;;;12.11;100.00